Time,TemperatureF,DewpointF,PressureIn,WindDirection,WindDirectionDegrees,WindSpeedMPH,WindSpeedGustMPH,Humidity,HourlyPrecipIn,Conditions,Clouds,dailyrainin,SoftwareType,DateUTC
2013-03-20 00:08:00,32.4,20.0,30.09,West,266,13.0,17.0,61,0.00,,,0.00,weatherlink.com 1.10,2013-03-20 04:08:00,
2013-03-20 00:23:00,32.1,19.0,30.09,WNW,290,7.0,19.0,60,0.00,,,0.00,weatherlink.com 1.10,2013-03-20 04:23:00,
2013-03-20 00:39:00,31.8,19.0,30.09,WNW,286,4.0,14.0,59,0.00,,,0.00,weatherlink.com 1.10,2013-03-20 04:39:00,
2013-03-20 00:55:00,31.6,19.0,30.09,WNW,290,7.0,17.0,59,0.00,,,0.00,weatherlink.com 1.10,2013-03-20 04:55:00,
2013-03-20 01:09:00,31.4,18.0,30.09,WNW,285,13.0,16.0,59,0.00,,,0.00,weatherlink.com 1.10,2013-03-20 05:09:00,
2013-03-20 01:26:00,31.2,17.0,30.08,WNW,288,5.0,18.0,57,0.00,,,0.00,weatherlink.com 1.10,2013-03-20 05:26:00,
2013-03-20 01:40:00,31.0,18.0,30.08,WNW,299,8.0,14.0,59,0.00,,,0.00,weatherlink.com 1.10,2013-03-20 05:40:00,
2013-03-20 01:56:00,30.7,18.0,30.08,West,259,9.0,16.0,60,0.00,,,0.00,weatherlink.com 1.10,2013-03-20 05:56:00,
2013-03-20 02:11:00,30.5,18.0,30.08,West,280,9.0,15.0,60,0.00,,,0.00,weatherlink.com 1.10,2013-03-20 06:11:00,
2013-03-20 02:27:00,30.2,18.0,30.08,West,281,6.0,15.0,61,0.00,,,0.00,weatherlink.com 1.10,2013-03-20 06:27:00,
2013-03-20 02:42:00,29.9,18.0,30.08,WNW,291,5.0,14.0,62,0.00,,,0.00,weatherlink.com 1.10,2013-03-20 06:42:00,
2013-03-20 02:56:00,29.6,19.0,30.07,West,265,8.0,14.0,64,0.00,,,0.00,weatherlink.com 1.10,2013-03-20 06:56:00,
2013-03-20 03:11:00,29.3,18.0,30.07,West,269,7.0,13.0,64,0.00,,,0.00,weatherlink.com 1.10,2013-03-20 07:11:00,
2013-03-20 03:27:00,28.9,18.0,30.06,West,275,7.0,12.0,65,0.00,,,0.00,weatherlink.com 1.10,2013-03-20 07:27:00,
2013-03-20 03:43:00,28.4,18.0,30.05,WSW,254,6.0,10.0,66,0.00,,,0.00,weatherlink.com 1.10,2013-03-20 07:43:00,
2013-03-20 03:57:00,28.0,18.0,30.04,WSW,254,5.0,10.0,67,0.00,,,0.00,weatherlink.com 1.10,2013-03-20 07:57:00,
2013-03-20 04:13:00,27.6,18.0,30.04,WSW,257,4.0,9.0,68,0.00,,,0.00,weatherlink.com 1.10,2013-03-20 08:13:00,
2013-03-20 04:28:00,27.4,19.0,30.04,WSW,244,5.0,9.0,72,0.00,,,0.00,weatherlink.com 1.10,2013-03-20 08:28:00,
2013-03-20 04:43:00,27.4,20.0,30.04,WNW,283,8.0,11.0,73,0.00,,,0.00,weatherlink.com 1.10,2013-03-20 08:43:00,
2013-03-20 04:59:00,27.2,20.0,30.03,West,271,6.0,10.0,74,0.00,,,0.00,weatherlink.com 1.10,2013-03-20 08:59:00,
2013-03-20 05:14:00,27.1,20.0,30.03,West,269,7.0,11.0,74,0.00,,,0.00,weatherlink.com 1.10,2013-03-20 09:14:00,
2013-03-20 05:30:00,26.9,20.0,30.03,WSW,242,8.0,11.0,75,0.00,,,0.00,weatherlink.com 1.10,2013-03-20 09:30:00,
2013-03-20 05:45:00,26.7,20.0,30.03,WSW,246,8.0,10.0,75,0.00,,,0.00,weatherlink.com 1.10,2013-03-20 09:45:00,
2013-03-20 06:00:00,26.6,20.0,30.03,West,265,3.0,13.0,75,0.00,,,0.00,weatherlink.com 1.10,2013-03-20 10:00:00,
2013-03-20 06:14:00,26.7,19.0,30.02,West,280,4.0,16.0,73,0.00,,,0.00,weatherlink.com 1.10,2013-03-20 10:14:00,
2013-03-20 06:31:00,26.5,19.0,30.02,West,267,7.0,13.0,74,0.00,,,0.00,weatherlink.com 1.10,2013-03-20 10:31:00,
2013-03-20 06:46:00,26.4,20.0,30.03,West,274,3.0,11.0,76,0.00,,,0.00,weatherlink.com 1.10,2013-03-20 10:46:00,
2013-03-20 07:01:00,26.4,20.0,30.03,West,263,3.0,11.0,77,0.00,,,0.00,weatherlink.com 1.10,2013-03-20 11:01:00,
2013-03-20 07:16:00,26.2,20.0,30.03,West,263,6.0,12.0,77,0.00,,,0.00,weatherlink.com 1.10,2013-03-20 11:16:00,
2013-03-20 07:31:00,26.1,20.0,30.03,NW,304,10.0,12.0,78,0.00,,,0.00,weatherlink.com 1.10,2013-03-20 11:31:00,
2013-03-20 07:46:00,26.0,19.0,30.04,WNW,294,7.0,14.0,74,0.00,,,0.00,weatherlink.com 1.10,2013-03-20 11:46:00,
2013-03-20 08:02:00,25.6,19.0,30.04,WSW,257,4.0,10.0,76,0.00,,,0.00,weatherlink.com 1.10,2013-03-20 12:02:00,
2013-03-20 08:18:00,25.6,18.0,30.05,WNW,298,7.0,15.0,74,0.00,,,0.00,weatherlink.com 1.10,2013-03-20 12:18:00,
2013-03-20 08:32:00,25.8,19.0,30.05,West,277,7.0,10.0,74,0.00,,,0.00,weatherlink.com 1.10,2013-03-20 12:32:00,
2013-03-20 08:49:00,25.9,18.0,30.05,West,268,12.0,14.0,73,0.00,,,0.00,weatherlink.com 1.10,2013-03-20 12:49:00,
2013-03-20 09:03:00,26.2,17.0,30.05,NW,317,10.0,17.0,69,0.00,,,0.00,weatherlink.com 1.10,2013-03-20 13:03:00,
2013-03-20 09:18:00,26.1,16.0,30.05,WNW,291,11.0,20.0,67,0.00,,,0.00,weatherlink.com 1.10,2013-03-20 13:18:00,
2013-03-20 09:33:00,26.4,17.0,30.06,NW,316,7.0,22.0,68,0.00,,,0.00,weatherlink.com 1.10,2013-03-20 13:33:00,
2013-03-20 09:49:00,26.0,16.0,30.05,NW,304,7.0,17.0,65,0.00,,,0.00,weatherlink.com 1.10,2013-03-20 13:49:00,
2013-03-20 10:04:00,26.0,16.0,30.05,WNW,296,6.0,18.0,65,0.00,,,0.00,weatherlink.com 1.10,2013-03-20 14:04:00,
2013-03-20 10:19:00,26.3,16.0,30.06,WNW,286,16.0,18.0,64,0.00,,,0.00,weatherlink.com 1.10,2013-03-20 14:19:00,
2013-03-20 10:34:00,26.7,16.0,30.05,WSW,249,5.0,14.0,63,0.00,,,0.00,weatherlink.com 1.10,2013-03-20 14:34:00,
2013-03-20 10:49:00,27.0,15.0,30.05,WNW,294,5.0,17.0,61,0.00,,,0.00,weatherlink.com 1.10,2013-03-20 14:49:00,
2013-03-20 11:05:00,26.8,14.0,30.05,West,259,6.0,15.0,60,0.00,,,0.00,weatherlink.com 1.10,2013-03-20 15:05:00,
2013-03-20 11:19:00,26.7,15.0,30.05,WNW,286,11.0,17.0,61,0.00,,,0.00,weatherlink.com 1.10,2013-03-20 15:19:00,
2013-03-20 11:35:00,27.4,15.0,30.06,NNW,340,7.0,15.0,60,0.00,,,0.00,weatherlink.com 1.10,2013-03-20 15:35:00,
2013-03-20 11:51:00,27.3,14.0,30.05,WNW,284,6.0,17.0,58,0.00,,,0.00,weatherlink.com 1.10,2013-03-20 15:51:00,
2013-03-20 12:06:00,27.8,15.0,30.05,WNW,293,4.0,14.0,58,0.00,,,0.00,weatherlink.com 1.10,2013-03-20 16:06:00,
2013-03-20 12:22:00,27.7,14.0,30.05,WNW,296,3.0,18.0,57,0.00,,,0.00,weatherlink.com 1.10,2013-03-20 16:22:00,
2013-03-20 12:36:00,28.1,15.0,30.05,NW,311,8.0,17.0,58,0.00,,,0.00,weatherlink.com 1.10,2013-03-20 16:36:00,
2013-03-20 12:51:00,28.3,14.0,30.05,West,267,8.0,17.0,56,0.00,,,0.00,weatherlink.com 1.10,2013-03-20 16:51:00,
2013-03-20 13:07:00,28.6,13.0,30.04,WNW,302,7.0,19.0,53,0.00,,,0.00,weatherlink.com 1.10,2013-03-20 17:07:00,
2013-03-20 13:22:00,29.1,13.0,30.04,WNW,290,9.0,21.0,52,0.00,,,0.00,weatherlink.com 1.10,2013-03-20 17:22:00,
2013-03-20 13:37:00,29.1,12.0,30.04,WNW,294,7.0,17.0,49,0.00,,,0.00,weatherlink.com 1.10,2013-03-20 17:37:00,
2013-03-20 13:53:00,29.4,13.0,30.04,West,269,13.0,19.0,50,0.00,,,0.00,weatherlink.com 1.10,2013-03-20 17:53:00,
2013-03-20 14:09:00,29.6,13.0,30.04,West,262,12.0,23.0,50,0.00,,,0.00,weatherlink.com 1.10,2013-03-20 18:09:00,
2013-03-20 14:24:00,-999.0,-99.9,30.03,North,-999,-999.0,-999.0,-999,0.00,,,0.00,weatherlink.com 1.10,2013-03-20 18:24:00,
2013-03-20 14:39:00,28.6,13.0,30.03,NW,309,5.0,16.0,52,0.00,,,0.00,weatherlink.com 1.10,2013-03-20 18:39:00,
2013-03-20 14:54:00,29.2,14.0,30.02,WSW,242,9.0,21.0,53,0.00,,,0.00,weatherlink.com 1.10,2013-03-20 18:54:00,
2013-03-20 15:11:00,28.5,14.0,30.02,WNW,288,12.0,21.0,56,0.00,,,0.00,weatherlink.com 1.10,2013-03-20 19:11:00,
2013-03-20 15:23:00,28.4,14.0,30.02,West,278,7.0,17.0,55,0.00,,,0.00,weatherlink.com 1.10,2013-03-20 19:23:00,
2013-03-20 15:38:00,28.5,14.0,30.02,West,265,13.0,18.0,56,0.00,,,0.00,weatherlink.com 1.10,2013-03-20 19:38:00,
2013-03-20 15:54:00,27.8,14.0,30.02,West,281,13.0,21.0,57,0.00,,,0.00,weatherlink.com 1.10,2013-03-20 19:54:00,
2013-03-20 16:09:00,27.6,14.0,30.02,West,273,10.0,20.0,56,0.00,,,0.00,weatherlink.com 1.10,2013-03-20 20:09:00,
2013-03-20 16:24:00,28.2,13.0,30.02,WSW,258,10.0,23.0,53,0.00,,,0.00,weatherlink.com 1.10,2013-03-20 20:24:00,
2013-03-20 16:40:00,28.6,13.0,30.01,WSW,247,12.0,20.0,52,0.00,,,0.00,weatherlink.com 1.10,2013-03-20 20:40:00,
2013-03-20 16:56:00,28.5,13.0,30.01,West,261,13.0,24.0,53,0.00,,,0.00,weatherlink.com 1.10,2013-03-20 20:56:00,
2013-03-20 17:12:00,27.6,11.0,30.01,WNW,292,8.0,20.0,50,0.00,,,0.00,weatherlink.com 1.10,2013-03-20 21:12:00,
2013-03-20 17:56:00,28.6,12.0,30.01,WNW,294,12.0,19.0,49,0.00,,,0.00,weatherlink.com 1.10,2013-03-20 21:56:00,
2013-03-20 18:12:00,27.7,11.0,30.02,NNW,333,8.0,21.0,49,0.00,,,0.00,weatherlink.com 1.10,2013-03-20 22:12:00,
2013-03-20 18:27:00,27.8,12.0,30.02,West,277,10.0,18.0,52,0.00,,,0.00,weatherlink.com 1.10,2013-03-20 22:27:00,
2013-03-20 18:42:00,27.2,11.0,30.02,West,269,17.0,21.0,50,0.00,,,0.00,weatherlink.com 1.10,2013-03-20 22:42:00,
2013-03-20 18:59:00,26.9,11.0,30.02,NNW,329,5.0,18.0,52,0.00,,,0.00,weatherlink.com 1.10,2013-03-20 22:59:00,
2013-03-20 19:13:00,26.6,11.0,30.03,WNW,286,7.0,20.0,52,0.00,,,0.00,weatherlink.com 1.10,2013-03-20 23:13:00,
2013-03-20 19:27:00,26.3,11.0,30.03,WNW,297,8.0,18.0,53,0.00,,,0.00,weatherlink.com 1.10,2013-03-20 23:27:00,
2013-03-20 19:42:00,26.1,11.0,30.03,NW,304,8.0,15.0,53,0.00,,,0.00,weatherlink.com 1.10,2013-03-20 23:42:00,
2013-03-20 19:58:00,25.9,11.0,30.03,WSW,241,5.0,16.0,54,0.00,,,0.00,weatherlink.com 1.10,2013-03-20 23:58:00,
2013-03-20 20:14:00,25.4,12.0,30.04,West,277,8.0,17.0,58,0.00,,,0.00,weatherlink.com 1.10,2013-03-21 00:14:00,
2013-03-20 20:29:00,25.4,13.0,30.04,WNW,296,5.0,15.0,59,0.00,,,0.00,weatherlink.com 1.10,2013-03-21 00:29:00,
2013-03-20 20:44:00,25.1,13.0,30.04,West,279,3.0,16.0,60,0.00,,,0.00,weatherlink.com 1.10,2013-03-21 00:44:00,
2013-03-20 20:59:00,24.6,14.0,30.04,WNW,288,3.0,15.0,64,0.00,,,0.00,weatherlink.com 1.10,2013-03-21 00:59:00,
2013-03-20 21:14:00,24.5,13.0,30.05,NW,313,5.0,18.0,62,0.00,,,0.00,weatherlink.com 1.10,2013-03-21 01:14:00,
2013-03-20 21:31:00,24.3,12.0,30.04,West,278,5.0,17.0,61,0.00,,,0.00,weatherlink.com 1.10,2013-03-21 01:31:00,
2013-03-20 21:45:00,24.3,12.0,30.04,WNW,302,6.0,14.0,60,0.00,,,0.00,weatherlink.com 1.10,2013-03-21 01:45:00,
2013-03-20 22:01:00,24.0,11.0,30.04,WNW,283,5.0,17.0,59,0.00,,,0.00,weatherlink.com 1.10,2013-03-21 02:01:00,
2013-03-20 22:16:00,24.0,12.0,30.04,NNW,344,9.0,16.0,60,0.00,,,0.00,weatherlink.com 1.10,2013-03-21 02:16:00,
2013-03-20 22:31:00,23.9,12.0,30.04,West,277,7.0,14.0,61,0.00,,,0.00,weatherlink.com 1.10,2013-03-21 02:31:00,
2013-03-20 22:46:00,23.7,12.0,30.04,WNW,302,8.0,14.0,61,0.00,,,0.00,weatherlink.com 1.10,2013-03-21 02:46:00,
2013-03-20 23:01:00,23.5,12.0,30.04,WNW,293,5.0,14.0,61,0.00,,,0.00,weatherlink.com 1.10,2013-03-21 03:01:00,
2013-03-20 23:16:00,23.4,12.0,30.04,NW,313,5.0,14.0,61,0.00,,,0.00,weatherlink.com 1.10,2013-03-21 03:16:00,
2013-03-20 23:32:00,23.2,12.0,30.03,WNW,284,10.0,11.0,62,0.00,,,0.00,weatherlink.com 1.10,2013-03-21 03:32:00,
2013-03-20 23:47:00,22.9,12.0,30.03,NW,307,5.0,12.0,63,0.00,,,0.00,weatherlink.com 1.10,2013-03-21 03:47:00,